createdAt,value
2022-09-13T00:00:51.756Z,8.27
2022-09-13T00:03:19.326Z,8.87
2022-09-13T00:05:46.466Z,13.60
2022-09-13T00:08:13.840Z,12.47
2022-09-13T00:10:41.852Z,8.20
2022-09-13T00:13:09.877Z,14.33
2022-09-13T00:15:37.442Z,9.60
2022-09-13T00:18:04.335Z,11.20
2022-09-13T00:20:30.989Z,12.23
2022-09-13T00:22:57.685Z,8.30
2022-09-13T00:25:24.354Z,8.70
2022-09-13T00:27:51.033Z,8.97
2022-09-13T00:30:17.737Z,10.40
2022-09-13T00:32:44.828Z,8.20
2022-09-13T00:35:11.487Z,11.70
2022-09-13T00:37:39.210Z,9.87
2022-09-13T00:40:07.186Z,11.93
2022-09-13T00:42:34.258Z,8.67
2022-09-13T00:45:06.898Z,8.70
2022-09-13T00:47:33.529Z,8.80
2022-09-13T00:50:11.942Z,8.60
2022-09-13T00:52:43.793Z,7.97
2022-09-13T00:55:19.810Z,9.40
2022-09-13T00:57:47.042Z,8.50
2022-09-13T01:00:17.955Z,12.67
2022-09-13T01:03:06.875Z,12.03
2022-09-13T01:05:38.133Z,10.73
2022-09-13T01:08:12.733Z,13.10
2022-09-13T01:10:41.705Z,11.13
2022-09-13T01:13:20.070Z,8.77
2022-09-13T01:15:47.563Z,7.50
2022-09-13T01:18:14.940Z,8.57
2022-09-13T01:21:13.235Z,10.10
2022-09-13T01:23:58.929Z,11.27
2022-09-13T01:26:59.022Z,9.97
2022-09-13T01:29:47.174Z,9.67
2022-09-13T01:32:56.266Z,8.40
2022-09-13T01:35:27.172Z,10.33
2022-09-13T01:38:30.841Z,11.50
2022-09-13T01:41:20.040Z,8.20
2022-09-13T01:44:18.974Z,8.90
2022-09-13T01:47:08.785Z,15.17
2022-09-13T01:49:48.730Z,12.70
2022-09-13T01:52:45.345Z,8.00
2022-09-13T01:56:06.974Z,9.30
2022-09-13T01:58:48.574Z,10.03
2022-09-13T02:01:39.848Z,8.23
2022-09-13T02:04:21.021Z,11.23
2022-09-13T02:07:07.110Z,8.83
2022-09-13T02:09:39.664Z,8.30
2022-09-13T02:12:16.143Z,12.53
2022-09-13T02:14:45.771Z,7.93
2022-09-13T02:17:20.868Z,9.47
2022-09-13T02:19:57.118Z,8.47
2022-09-13T02:22:34.659Z,11.30
2022-09-13T02:25:07.907Z,8.70
2022-09-13T02:27:37.698Z,7.43
2022-09-13T02:30:10.478Z,9.13
2022-09-13T02:32:42.943Z,11.70
2022-09-13T02:35:19.527Z,10.33
2022-09-13T02:37:57.666Z,10.03
2022-09-13T02:40:28.514Z,9.93
2022-09-13T02:43:02.110Z,8.47
2022-09-13T02:45:35.338Z,12.63
2022-09-13T02:48:10.673Z,9.00
2022-09-13T02:51:04.975Z,9.40
2022-09-13T02:53:43.195Z,10.27
2022-09-13T02:56:23.917Z,11.00
2022-09-13T02:59:06.378Z,18.83
2022-09-13T03:01:36.496Z,15.90
2022-09-13T03:04:03.515Z,11.73
2022-09-13T03:06:30.823Z,8.13
2022-09-13T03:09:01.439Z,11.70
2022-09-13T03:11:56.035Z,11.73
2022-09-13T03:14:37.753Z,12.83
2022-09-13T03:17:42.171Z,11.20
2022-09-13T03:20:40.962Z,7.60
2022-09-13T03:23:45.697Z,14.00
2022-09-13T03:26:46.758Z,10.63
2022-09-13T03:29:32.030Z,11.07
2022-09-13T03:32:40.876Z,8.03
2022-09-13T03:35:31.726Z,19.13
2022-09-13T03:38:12.726Z,7.60
2022-09-13T03:40:45.073Z,10.90
2022-09-13T03:43:35.555Z,8.07
2022-09-13T03:46:36.806Z,10.13
2022-09-13T03:49:10.245Z,9.30
2022-09-13T03:51:37.729Z,10.90
2022-09-13T03:54:10.355Z,11.93
2022-09-13T03:56:37.206Z,11.80
2022-09-13T03:59:03.925Z,11.03
2022-09-13T04:01:31.092Z,9.93
2022-09-13T04:03:57.942Z,11.93
2022-09-13T04:06:24.799Z,10.47
2022-09-13T04:08:51.522Z,8.23
2022-09-13T04:11:18.302Z,9.00
2022-09-13T04:13:45.064Z,9.80
2022-09-13T04:16:12.008Z,10.53
2022-09-13T04:18:38.725Z,8.53
2022-09-13T04:21:05.561Z,8.27
2022-09-13T04:23:32.292Z,8.37
2022-09-13T04:26:06.350Z,11.60
2022-09-13T04:28:33.220Z,8.90
2022-09-13T04:30:59.902Z,11.80
2022-09-13T04:33:26.556Z,7.87
2022-09-13T04:36:00.195Z,10.83
2022-09-13T04:38:27.715Z,9.47
2022-09-13T04:40:55.533Z,10.60
2022-09-13T04:43:22.872Z,10.83
2022-09-13T04:45:50.121Z,13.03
2022-09-13T04:48:16.970Z,13.77
2022-09-13T04:50:44.602Z,8.00
2022-09-13T04:53:11.381Z,9.03
2022-09-13T04:55:38.031Z,10.00
2022-09-13T04:58:05.098Z,12.63
2022-09-13T05:00:32.517Z,12.27
2022-09-13T05:02:59.252Z,11.93
2022-09-13T05:05:26.072Z,18.73
2022-09-13T05:07:53.150Z,12.63
2022-09-13T05:10:19.854Z,10.27
2022-09-13T05:12:46.679Z,10.13
2022-09-13T05:15:13.486Z,10.50
2022-09-13T05:17:40.245Z,10.67
2022-09-13T05:20:07.431Z,10.37
2022-09-13T05:22:34.153Z,11.40
2022-09-13T05:25:00.799Z,9.33
2022-09-13T05:27:27.491Z,10.40
2022-09-13T05:29:54.150Z,11.10
2022-09-13T05:32:20.838Z,10.40
2022-09-13T05:34:47.908Z,10.10
2022-09-13T05:37:14.594Z,13.63
2022-09-13T05:40:07.361Z,17.17
2022-09-13T05:42:27.891Z,13.13
2022-09-13T05:44:54.549Z,9.93
2022-09-13T05:47:21.638Z,12.33
2022-09-13T05:50:08.852Z,14.50
2022-09-13T05:52:34.926Z,13.10
2022-09-13T05:55:01.575Z,37.03
2022-09-13T05:57:28.252Z,16.20
2022-09-13T05:59:54.904Z,23.50
2022-09-13T06:02:21.775Z,19.13
2022-09-13T06:04:48.536Z,15.43
2022-09-13T06:07:15.191Z,13.93
2022-09-13T06:09:41.832Z,10.20
2022-09-13T06:12:08.509Z,10.40
2022-09-13T06:14:35.145Z,11.67
2022-09-13T06:17:01.807Z,18.33
2022-09-13T06:19:28.582Z,14.73
2022-09-13T06:21:55.365Z,13.37
2022-09-13T06:24:22.022Z,11.30
2022-09-13T06:26:48.866Z,17.93
2022-09-13T06:29:15.669Z,13.37
2022-09-13T06:31:45.133Z,16.37
2022-09-13T06:34:17.431Z,13.10
2022-09-13T06:36:44.229Z,12.27
2022-09-13T06:39:11.025Z,21.07
2022-09-13T06:41:37.891Z,16.70
2022-09-13T06:44:05.150Z,12.83
2022-09-13T06:46:34.306Z,16.60
2022-09-13T06:49:03.564Z,14.10
2022-09-13T06:51:31.122Z,18.90
2022-09-13T06:53:58.827Z,17.40
2022-09-13T06:56:27.990Z,16.40
2022-09-13T06:58:59.714Z,16.90
2022-09-13T07:01:29.202Z,16.13
2022-09-13T07:04:00.393Z,18.13
2022-09-13T07:06:32.787Z,15.33
2022-09-13T07:09:00.924Z,15.73
2022-09-13T07:11:31.710Z,19.97
2022-09-13T07:13:59.087Z,15.90
2022-09-13T07:16:31.302Z,18.33
2022-09-13T07:19:05.659Z,15.90
2022-09-13T07:21:34.075Z,22.53
2022-09-13T07:24:01.089Z,16.53
2022-09-13T07:26:28.298Z,19.10
2022-09-13T07:28:57.499Z,16.53
2022-09-13T07:31:30.225Z,14.73
2022-09-13T07:33:59.328Z,15.57
2022-09-13T07:36:27.409Z,19.27
2022-09-13T07:38:54.066Z,16.07
2022-09-13T07:41:23.188Z,18.57
2022-09-13T07:43:51.693Z,15.37
2022-09-13T07:46:24.031Z,14.20
2022-09-13T07:48:54.104Z,13.73
2022-09-13T07:51:23.469Z,18.80
2022-09-13T07:53:56.496Z,15.30
2022-09-13T07:56:29.266Z,13.60
2022-09-13T07:58:58.237Z,15.00
2022-09-13T08:01:35.828Z,18.30
2022-09-13T08:04:05.669Z,17.67
2022-09-13T08:06:34.272Z,16.50
2022-09-13T08:09:01.225Z,20.80
2022-09-13T08:11:30.777Z,16.57
2022-09-13T08:13:58.359Z,16.87
2022-09-13T08:16:26.120Z,20.53
2022-09-13T08:18:56.989Z,14.53
2022-09-13T08:21:24.700Z,13.50
2022-09-13T08:24:00.407Z,15.40
2022-09-13T08:26:28.649Z,16.40
2022-09-13T08:28:58.230Z,20.60
2022-09-13T08:31:25.871Z,17.90
2022-09-13T08:33:53.482Z,15.40
2022-09-13T08:36:20.836Z,16.90
2022-09-13T08:38:52.545Z,14.63
2022-09-13T08:41:37.851Z,13.93
2022-09-13T08:44:26.620Z,13.03
2022-09-13T08:46:59.918Z,11.50
2022-09-13T08:49:35.456Z,12.63
2022-09-13T08:52:33.621Z,15.20
2022-09-13T08:55:06.932Z,11.00
2022-09-13T08:57:44.701Z,11.03
2022-09-13T09:00:38.185Z,10.57
2022-09-13T09:03:11.008Z,10.93
2022-09-13T09:05:49.664Z,15.30
2022-09-13T09:08:33.920Z,10.93
2022-09-13T09:11:12.242Z,10.60
2022-09-13T09:13:52.758Z,13.57
2022-09-13T09:16:40.972Z,16.90
2022-09-13T09:19:16.797Z,15.10
2022-09-13T09:21:46.839Z,12.10
2022-09-13T09:24:19.671Z,13.50
2022-09-13T09:26:46.383Z,14.33
2022-09-13T09:29:26.560Z,19.47
2022-09-13T09:32:06.393Z,13.00
2022-09-13T09:34:58.665Z,17.13
2022-09-13T09:37:28.571Z,14.80
2022-09-13T09:40:10.422Z,12.33
2022-09-13T09:42:48.137Z,23.57
2022-09-13T09:45:37.903Z,12.70
2022-09-13T09:48:16.817Z,11.90
2022-09-13T09:50:54.607Z,13.90
2022-09-13T09:53:43.853Z,21.97
2022-09-13T09:56:31.563Z,15.57
2022-09-13T09:58:58.336Z,14.87
2022-09-13T10:01:34.147Z,17.83
2022-09-13T10:04:22.157Z,21.77
2022-09-13T10:06:49.912Z,12.53
2022-09-13T10:09:18.272Z,13.80
2022-09-13T10:11:59.175Z,18.30
2022-09-13T10:14:45.934Z,11.27
2022-09-13T10:17:16.294Z,15.37
2022-09-13T10:19:54.108Z,11.83
2022-09-13T10:22:22.485Z,11.00
2022-09-13T10:24:50.326Z,14.33
2022-09-13T10:27:25.023Z,12.27
2022-09-13T10:29:56.747Z,18.53
2022-09-13T10:32:23.858Z,12.77
2022-09-13T10:34:51.582Z,12.37
2022-09-13T10:37:33.822Z,14.33
2022-09-13T10:40:07.948Z,11.60
2022-09-13T10:42:35.349Z,17.90
2022-09-13T10:45:07.958Z,16.60
2022-09-13T10:47:50.375Z,13.83
2022-09-13T10:50:28.996Z,7.43
2022-09-13T10:53:00.522Z,8.40
2022-09-13T10:55:27.285Z,7.63
2022-09-13T10:58:13.677Z,10.90
2022-09-13T11:00:59.198Z,9.40
2022-09-13T11:03:44.947Z,9.20
2022-09-13T11:06:33.154Z,8.90
2022-09-13T11:09:02.689Z,7.37
2022-09-13T11:11:49.061Z,9.83
2022-09-13T11:14:45.850Z,9.40
2022-09-13T11:17:50.120Z,9.33
2022-09-13T11:20:46.157Z,9.70
2022-09-13T11:23:37.707Z,8.50
2022-09-13T11:26:23.300Z,9.20
2022-09-13T11:29:19.871Z,19.37
2022-09-13T11:32:12.680Z,10.10
2022-09-13T11:35:00.018Z,13.00
2022-09-13T11:37:34.195Z,10.10
2022-09-13T11:40:25.324Z,15.53
2022-09-13T11:43:00.726Z,9.80
2022-09-13T11:45:40.473Z,12.33
2022-09-13T11:48:28.975Z,9.60
2022-09-13T11:51:20.333Z,9.13
2022-09-13T11:54:15.561Z,12.93
2022-09-13T11:56:49.856Z,11.03
2022-09-13T11:59:38.696Z,12.50
2022-09-13T12:02:27.533Z,7.40
2022-09-13T12:05:21.585Z,7.90
2022-09-13T12:07:48.977Z,11.73
2022-09-13T12:10:41.437Z,9.80
2022-09-13T12:13:16.640Z,9.70
2022-09-13T12:15:46.565Z,9.97
2022-09-13T12:18:36.239Z,12.50
2022-09-13T12:21:12.483Z,8.07
2022-09-13T12:23:44.652Z,7.73
2022-09-13T12:26:21.501Z,7.87
2022-09-13T12:29:32.153Z,11.10
2022-09-13T12:32:05.640Z,6.83
2022-09-13T12:34:44.428Z,7.23
2022-09-13T12:37:17.091Z,11.37
2022-09-13T12:40:10.526Z,6.23
2022-09-13T12:42:48.493Z,21.73
2022-09-13T12:45:41.502Z,14.17
2022-09-13T12:48:17.259Z,9.27
2022-09-13T12:50:49.977Z,7.97
2022-09-13T12:53:30.695Z,8.93
2022-09-13T12:56:09.693Z,6.60
2022-09-13T12:59:03.935Z,9.83
2022-09-13T13:01:33.123Z,8.03
2022-09-13T13:04:08.519Z,7.50
2022-09-13T13:07:03.053Z,10.10
2022-09-13T13:09:43.789Z,6.33
2022-09-13T13:12:30.245Z,8.43
2022-09-13T13:14:58.226Z,10.87
2022-09-13T13:17:46.635Z,7.50
2022-09-13T13:20:50.797Z,7.17
2022-09-13T13:23:37.073Z,15.10
2022-09-13T13:26:32.733Z,13.00
2022-09-13T13:29:13.088Z,13.50
2022-09-13T13:31:44.700Z,12.40
2022-09-13T13:34:14.474Z,11.50
2022-09-13T13:36:41.137Z,9.93
2022-09-13T13:39:34.932Z,9.60
2022-09-13T13:42:12.847Z,9.70
2022-09-13T13:44:42.532Z,9.13
2022-09-13T13:47:09.234Z,7.70
2022-09-13T13:49:39.110Z,11.00
2022-09-13T13:52:09.074Z,9.83
2022-09-13T13:54:41.755Z,7.80
2022-09-13T13:57:38.846Z,6.47
2022-09-13T14:00:14.022Z,10.13
2022-09-13T14:02:49.891Z,7.20
2022-09-13T14:05:44.545Z,13.83
2022-09-13T14:08:46.331Z,12.80
2022-09-13T14:11:41.970Z,5.40
2022-09-13T14:14:29.482Z,8.00
2022-09-13T14:17:08.462Z,6.83
2022-09-13T14:19:50.084Z,5.87
2022-09-13T14:22:21.061Z,6.37
2022-09-13T14:24:49.921Z,17.03
2022-09-13T14:27:26.164Z,14.43
2022-09-13T14:29:56.275Z,4.00
2022-09-13T14:32:27.395Z,5.67
2022-09-13T14:35:07.227Z,6.60
2022-09-13T14:37:39.649Z,6.40
2022-09-13T14:40:16.215Z,4.40
2022-09-13T14:42:46.102Z,5.50
2022-09-13T14:45:14.935Z,4.03
2022-09-13T14:48:10.261Z,5.33
2022-09-13T14:50:41.007Z,5.03
2022-09-13T14:53:14.306Z,4.17
2022-09-13T14:55:45.737Z,4.10
2022-09-13T14:58:21.658Z,4.90
2022-09-13T15:01:00.862Z,6.63
2022-09-13T15:03:28.235Z,3.40
2022-09-13T15:05:58.444Z,3.37
2022-09-13T15:08:34.016Z,5.00
2022-09-13T15:11:02.862Z,10.60
2022-09-13T15:13:29.664Z,3.37
2022-09-13T15:15:56.476Z,6.50
2022-09-13T15:18:36.875Z,5.07
2022-09-13T15:21:06.368Z,5.30
2022-09-13T15:23:39.243Z,3.67
2022-09-13T15:26:19.776Z,4.00
2022-09-13T15:28:53.650Z,4.67
2022-09-13T15:31:32.314Z,8.67
2022-09-13T15:34:17.356Z,13.13
2022-09-13T15:36:45.710Z,5.20
2022-09-13T15:39:18.599Z,4.63
2022-09-13T15:42:11.490Z,4.87
2022-09-13T15:44:42.390Z,4.47
2022-09-13T15:47:12.196Z,5.23
2022-09-13T15:49:41.047Z,6.17
2022-09-13T15:52:08.449Z,9.87
2022-09-13T15:54:41.288Z,4.57
2022-09-13T15:57:29.890Z,3.53
2022-09-13T16:00:01.446Z,8.40
2022-09-13T16:02:35.690Z,4.43
2022-09-13T16:05:02.375Z,4.40
2022-09-13T16:07:29.143Z,5.20
2022-09-13T16:09:55.796Z,6.73
2022-09-13T16:12:24.619Z,4.20
2022-09-13T16:14:51.553Z,4.53
2022-09-13T16:17:23.798Z,7.73
2022-09-13T16:19:50.733Z,6.67
2022-09-13T16:22:17.666Z,4.97
2022-09-13T16:24:44.414Z,6.80
2022-09-13T16:27:14.304Z,7.97
2022-09-13T16:29:41.460Z,4.73
2022-09-13T16:32:08.160Z,4.87
2022-09-13T16:34:34.910Z,7.50
2022-09-13T16:37:01.932Z,5.53
2022-09-13T16:39:29.157Z,5.30
2022-09-13T16:41:55.845Z,8.90
2022-09-13T16:44:22.600Z,7.47
2022-09-13T16:46:49.630Z,8.17
2022-09-13T16:49:16.382Z,9.43
2022-09-13T16:51:43.052Z,6.60
2022-09-13T16:54:09.829Z,4.57
2022-09-13T16:56:36.622Z,9.57
2022-09-13T16:59:03.511Z,4.90
2022-09-13T17:01:30.337Z,7.23
2022-09-13T17:03:57.626Z,5.60
2022-09-13T17:06:25.894Z,4.17
2022-09-13T17:08:56.017Z,4.53
2022-09-13T17:11:25.495Z,7.80
2022-09-13T17:13:52.373Z,4.90
2022-09-13T17:16:23.003Z,6.40
2022-09-13T17:18:50.014Z,4.90
2022-09-13T17:21:17.141Z,4.70
2022-09-13T17:23:43.801Z,3.63
2022-09-13T17:26:11.313Z,2.97
2022-09-13T17:28:38.519Z,6.80
2022-09-13T17:31:05.703Z,2.93
2022-09-13T17:33:32.574Z,3.53
2022-09-13T17:36:04.862Z,7.17
2022-09-13T17:38:31.540Z,7.43
2022-09-13T17:41:05.462Z,3.30
2022-09-13T17:43:33.419Z,3.87
2022-09-13T17:46:24.276Z,3.43
2022-09-13T17:48:53.320Z,5.63
2022-09-13T17:51:22.890Z,3.50
2022-09-13T17:53:53.220Z,5.30
2022-09-13T17:56:22.033Z,3.73
2022-09-13T17:58:48.942Z,5.83
2022-09-13T18:01:15.883Z,3.63
2022-09-13T18:03:42.967Z,3.80
2022-09-13T18:06:11.806Z,5.00
2022-09-13T18:08:39.385Z,3.60
2022-09-13T18:11:14.148Z,4.33
2022-09-13T18:13:43.116Z,8.00
2022-09-13T18:16:20.718Z,5.47
2022-09-13T18:18:48.462Z,5.13
2022-09-13T18:21:18.561Z,11.43
2022-09-13T18:23:46.535Z,4.97
2022-09-13T18:26:15.945Z,3.67
2022-09-13T18:28:43.753Z,5.77
2022-09-13T18:31:14.775Z,4.80
2022-09-13T18:33:42.349Z,3.57
2022-09-13T18:36:14.966Z,3.67
2022-09-13T18:38:43.889Z,9.23
2022-09-13T18:41:22.478Z,4.20
2022-09-13T18:43:55.156Z,5.20
2022-09-13T18:46:25.293Z,3.60
2022-09-13T18:48:54.289Z,4.97
2022-09-13T18:51:41.846Z,3.97
2022-09-13T18:54:12.532Z,8.20
2022-09-13T18:56:39.218Z,3.60
2022-09-13T18:59:07.570Z,6.77
2022-09-13T19:01:36.638Z,5.37
2022-09-13T19:04:07.337Z,7.43
2022-09-13T19:06:39.804Z,3.80
2022-09-13T19:09:08.306Z,8.43
2022-09-13T19:11:48.884Z,10.97
2022-09-13T19:14:23.057Z,4.70
2022-09-13T19:16:51.221Z,4.77
2022-09-13T19:19:18.448Z,3.70
2022-09-13T19:21:45.244Z,9.93
2022-09-13T19:24:17.634Z,4.83
2022-09-13T19:26:46.561Z,7.50
2022-09-13T19:29:16.297Z,8.77
2022-09-13T19:31:47.612Z,10.00
2022-09-13T19:34:15.489Z,3.60
2022-09-13T19:36:44.134Z,5.00
2022-09-13T19:39:11.387Z,7.20
2022-09-13T19:41:39.638Z,6.33
2022-09-13T19:44:07.046Z,14.23
2022-09-13T19:46:39.130Z,16.87
2022-09-13T19:49:08.198Z,18.60
2022-09-13T19:51:37.325Z,14.60
2022-09-13T19:54:05.555Z,6.33
2022-09-13T19:56:38.615Z,8.67
2022-09-13T19:59:07.510Z,10.73
2022-09-13T20:01:36.786Z,11.57
2022-09-13T20:04:09.290Z,9.83
2022-09-13T20:06:38.746Z,5.87
2022-09-13T20:09:07.024Z,4.77
2022-09-13T20:11:34.592Z,5.00
2022-09-13T20:14:03.929Z,9.93
2022-09-13T20:16:33.980Z,4.43
2022-09-13T20:19:02.010Z,5.77
2022-09-13T20:21:30.944Z,12.00
2022-09-13T20:24:00.676Z,4.63
2022-09-13T20:26:27.910Z,6.07
2022-09-13T20:29:02.443Z,5.53
2022-09-13T20:31:30.989Z,9.70
2022-09-13T20:33:59.606Z,5.37
2022-09-13T20:36:28.029Z,4.27
2022-09-13T20:39:02.274Z,11.33
2022-09-13T20:41:31.232Z,9.03
2022-09-13T20:44:01.404Z,6.20
2022-09-13T20:46:29.396Z,4.33
2022-09-13T20:48:56.323Z,7.53
2022-09-13T20:51:30.454Z,5.10
2022-09-13T20:54:00.689Z,7.60
2022-09-13T20:56:28.754Z,8.87
2022-09-13T20:58:58.032Z,3.97
2022-09-13T21:01:25.724Z,10.17
2022-09-13T21:03:54.317Z,6.87
2022-09-13T21:06:23.556Z,5.97
2022-09-13T21:08:52.094Z,3.67
2022-09-13T21:11:25.243Z,6.07
2022-09-13T21:13:54.323Z,4.80
2022-09-13T21:16:26.192Z,8.57
2022-09-13T21:18:53.774Z,8.77
2022-09-13T21:21:26.552Z,10.23
2022-09-13T21:23:54.914Z,11.33
2022-09-13T21:26:23.618Z,15.00
2022-09-13T21:28:50.798Z,8.10
2022-09-13T21:31:21.917Z,7.90
2022-09-13T21:33:53.047Z,6.30
2022-09-13T21:36:19.713Z,12.67
2022-09-13T21:38:46.549Z,5.03
2022-09-13T21:41:16.743Z,5.80
2022-09-13T21:43:44.424Z,10.00
2022-09-13T21:46:16.690Z,9.90
2022-09-13T21:48:45.316Z,5.73
2022-09-13T21:51:20.842Z,12.73
2022-09-13T21:53:49.364Z,7.13
2022-09-13T21:56:18.039Z,6.30
2022-09-13T21:58:58.193Z,8.17
2022-09-13T22:01:25.942Z,5.50
2022-09-13T22:03:53.438Z,5.70
2022-09-13T22:06:22.015Z,5.80
2022-09-13T22:08:56.651Z,5.00
2022-09-13T22:11:26.514Z,4.60
2022-09-13T22:13:54.302Z,6.53
2022-09-13T22:16:30.100Z,6.73
2022-09-13T22:18:59.420Z,4.90
2022-09-13T22:21:32.182Z,6.53
2022-09-13T22:23:59.282Z,5.23
2022-09-13T22:26:30.047Z,4.33
2022-09-13T22:28:58.366Z,4.70
2022-09-13T22:31:31.020Z,6.40
2022-09-13T22:33:59.633Z,5.80
2022-09-13T22:36:26.744Z,8.27
2022-09-13T22:38:55.026Z,5.33
2022-09-13T22:41:28.348Z,4.43
2022-09-13T22:43:55.830Z,4.60
2022-09-13T22:46:25.401Z,7.50
2022-09-13T22:48:54.491Z,5.17
2022-09-13T22:51:22.527Z,5.00
2022-09-13T22:53:50.593Z,9.03
2022-09-13T22:56:26.816Z,5.93
2022-09-13T22:59:01.700Z,5.90
2022-09-13T23:01:29.941Z,5.17
2022-09-13T23:03:57.398Z,8.20
2022-09-13T23:06:25.357Z,7.50
2022-09-13T23:08:54.019Z,9.17
2022-09-13T23:11:28.560Z,4.50
2022-09-13T23:13:58.408Z,5.03
2022-09-13T23:16:37.234Z,6.60
2022-09-13T23:19:04.562Z,14.47
2022-09-13T23:21:34.702Z,8.03
2022-09-13T23:24:03.021Z,4.60
2022-09-13T23:26:30.249Z,5.27
2022-09-13T23:29:01.682Z,6.20
2022-09-13T23:31:31.389Z,9.23
2022-09-13T23:34:01.601Z,5.20
2022-09-13T23:36:30.727Z,6.03
2022-09-13T23:38:59.303Z,8.83
2022-09-13T23:41:26.498Z,8.87
2022-09-13T23:43:54.215Z,4.90
2022-09-13T23:46:21.206Z,18.27
2022-09-13T23:48:48.495Z,18.57
2022-09-13T23:51:22.942Z,8.10
2022-09-13T23:53:52.052Z,6.90
2022-09-13T23:56:19.844Z,4.80
2022-09-13T23:58:47.171Z,16.57
